sensor_id;sensor_type;location;lat;lon;timestamp;pressure;altitude;pressure_sealevel;temperature;humidity
72961;BME280;61141;46.204;19.774;2023-08-06T00:00:50;99124.19;;;20.12;100.00
72961;BME280;61141;46.204;19.774;2023-08-06T00:03:53;99121.56;;;20.09;100.00
72961;BME280;61141;46.204;19.774;2023-08-06T00:06:56;99121.56;;;20.09;100.00
72961;BME280;61141;46.204;19.774;2023-08-06T00:09:59;99120.47;;;20.06;100.00
72961;BME280;61141;46.204;19.774;2023-08-06T00:13:02;99126.34;;;20.08;100.00
72961;BME280;61141;46.204;19.774;2023-08-06T00:16:12;99141.63;;;20.04;100.00
72961;BME280;61141;46.204;19.774;2023-08-06T00:19:15;99149.84;;;20.07;100.00
72961;BME280;61141;46.204;19.774;2023-08-06T00:22:19;99160.63;;;19.96;100.00
72961;BME280;61141;46.204;19.774;2023-08-06T00:25:21;99176.69;;;19.92;100.00
72961;BME280;61141;46.204;19.774;2023-08-06T00:28:24;99174.03;;;19.79;100.00
72961;BME280;61141;46.204;19.774;2023-08-06T00:31:27;99181.28;;;19.77;100.00
72961;BME280;61141;46.204;19.774;2023-08-06T00:34:30;99180.97;;;19.75;100.00
72961;BME280;61141;46.204;19.774;2023-08-06T00:37:33;99188.03;;;19.67;100.00
72961;BME280;61141;46.204;19.774;2023-08-06T00:40:36;99182.50;;;19.67;100.00
72961;BME280;61141;46.204;19.774;2023-08-06T00:43:39;99176.78;;;19.70;100.00
72961;BME280;61141;46.204;19.774;2023-08-06T00:46:42;99181.88;;;19.63;100.00
72961;BME280;61141;46.204;19.774;2023-08-06T00:49:45;99176.88;;;19.49;100.00
72961;BME280;61141;46.204;19.774;2023-08-06T00:52:49;99168.09;;;19.50;100.00
72961;BME280;61141;46.204;19.774;2023-08-06T00:55:52;99168.72;;;19.54;100.00
72961;BME280;61141;46.204;19.774;2023-08-06T00:58:55;99159.75;;;19.50;100.00
72961;BME280;61141;46.204;19.774;2023-08-06T01:01:58;99163.31;;;19.51;100.00
72961;BME280;61141;46.204;19.774;2023-08-06T01:05:01;99151.12;;;19.57;100.00
72961;BME280;61141;46.204;19.774;2023-08-06T01:08:30;99124.09;;;19.49;100.00
72961;BME280;61141;46.204;19.774;2023-08-06T01:15:34;99099.88;;;19.49;100.00
72961;BME280;61141;46.204;19.774;2023-08-06T01:18:40;99096.63;;;19.51;100.00
72961;BME280;61141;46.204;19.774;2023-08-06T01:21:44;99101.28;;;19.54;100.00
72961;BME280;61141;46.204;19.774;2023-08-06T01:24:48;99103.13;;;19.57;100.00
72961;BME280;61141;46.204;19.774;2023-08-06T01:27:54;99100.06;;;19.55;100.00
72961;BME280;61141;46.204;19.774;2023-08-06T01:31:02;99098.97;;;19.52;100.00
72961;BME280;61141;46.204;19.774;2023-08-06T01:34:17;99088.28;;;19.42;100.00
72961;BME280;61141;46.204;19.774;2023-08-06T01:37:23;99093.78;;;19.32;100.00
72961;BME280;61141;46.204;19.774;2023-08-06T01:40:27;99092.47;;;19.46;100.00
72961;BME280;61141;46.204;19.774;2023-08-06T01:43:31;99092.31;;;19.41;100.00
72961;BME280;61141;46.204;19.774;2023-08-06T01:46:34;99082.22;;;19.34;100.00
72961;BME280;61141;46.204;19.774;2023-08-06T01:49:37;99079.44;;;19.34;100.00
72961;BME280;61141;46.204;19.774;2023-08-06T01:52:40;99073.94;;;19.43;100.00
72961;BME280;61141;46.204;19.774;2023-08-06T01:55:47;99075.50;;;19.44;100.00
72961;BME280;61141;46.204;19.774;2023-08-06T01:58:50;99077.16;;;19.42;100.00
72961;BME280;61141;46.204;19.774;2023-08-06T02:01:53;99083.06;;;19.44;100.00
72961;BME280;61141;46.204;19.774;2023-08-06T02:04:57;99086.28;;;19.42;100.00
72961;BME280;61141;46.204;19.774;2023-08-06T02:08:00;99079.91;;;19.32;100.00
72961;BME280;61141;46.204;19.774;2023-08-06T02:11:04;99092.00;;;19.39;100.00
72961;BME280;61141;46.204;19.774;2023-08-06T02:14:06;99091.03;;;19.42;100.00
72961;BME280;61141;46.204;19.774;2023-08-06T02:17:09;99092.91;;;19.45;100.00
72961;BME280;61141;46.204;19.774;2023-08-06T02:20:12;99097.84;;;19.41;100.00
72961;BME280;61141;46.204;19.774;2023-08-06T02:23:15;99091.81;;;19.42;100.00
72961;BME280;61141;46.204;19.774;2023-08-06T02:26:19;99100.16;;;19.42;100.00
72961;BME280;61141;46.204;19.774;2023-08-06T02:29:22;99091.22;;;19.38;100.00
72961;BME280;61141;46.204;19.774;2023-08-06T02:32:25;99078.22;;;19.35;100.00
72961;BME280;61141;46.204;19.774;2023-08-06T02:35:28;99081.28;;;19.37;100.00
72961;BME280;61141;46.204;19.774;2023-08-06T02:38:32;99073.44;;;19.35;100.00
72961;BME280;61141;46.204;19.774;2023-08-06T02:41:35;99071.56;;;19.32;100.00
72961;BME280;61141;46.204;19.774;2023-08-06T02:44:38;99066.62;;;19.27;100.00
72961;BME280;61141;46.204;19.774;2023-08-06T02:47:41;99060.44;;;19.23;100.00
72961;BME280;61141;46.204;19.774;2023-08-06T02:50:43;99057.69;;;19.32;100.00
72961;BME280;61141;46.204;19.774;2023-08-06T02:53:48;99056.59;;;19.30;100.00
72961;BME280;61141;46.204;19.774;2023-08-06T02:56:52;99055.84;;;19.29;100.00
72961;BME280;61141;46.204;19.774;2023-08-06T02:59:56;99059.69;;;19.32;100.00
72961;BME280;61141;46.204;19.774;2023-08-06T03:02:58;99055.78;;;19.20;100.00
72961;BME280;61141;46.204;19.774;2023-08-06T03:06:02;99046.53;;;19.14;100.00
72961;BME280;61141;46.204;19.774;2023-08-06T03:09:06;99039.13;;;19.20;100.00
72961;BME280;61141;46.204;19.774;2023-08-06T03:12:09;99049.03;;;19.30;100.00
72961;BME280;61141;46.204;19.774;2023-08-06T03:15:13;99033.13;;;19.13;100.00
72961;BME280;61141;46.204;19.774;2023-08-06T03:18:16;99048.06;;;19.15;100.00
72961;BME280;61141;46.204;19.774;2023-08-06T03:21:19;99051.47;;;19.10;100.00
72961;BME280;61141;46.204;19.774;2023-08-06T03:24:22;99059.75;;;19.01;100.00
72961;BME280;61141;46.204;19.774;2023-08-06T03:27:26;99052.66;;;19.00;100.00
72961;BME280;61141;46.204;19.774;2023-08-06T03:30:29;99055.75;;;19.02;100.00
72961;BME280;61141;46.204;19.774;2023-08-06T03:33:32;99047.87;;;19.01;100.00
72961;BME280;61141;46.204;19.774;2023-08-06T03:36:36;99047.09;;;19.00;100.00
72961;BME280;61141;46.204;19.774;2023-08-06T03:39:41;99025.34;;;18.99;100.00
72961;BME280;61141;46.204;19.774;2023-08-06T03:42:44;99028.44;;;19.01;100.00
72961;BME280;61141;46.204;19.774;2023-08-06T03:45:47;99027.09;;;19.05;100.00
72961;BME280;61141;46.204;19.774;2023-08-06T03:48:50;99013.38;;;19.11;100.00
72961;BME280;61141;46.204;19.774;2023-08-06T03:51:53;99014.16;;;19.20;100.00
72961;BME280;61141;46.204;19.774;2023-08-06T03:54:56;99016.75;;;19.15;100.00
72961;BME280;61141;46.204;19.774;2023-08-06T03:57:59;99012.75;;;19.16;100.00
72961;BME280;61141;46.204;19.774;2023-08-06T04:01:02;99004.88;;;19.14;100.00
72961;BME280;61141;46.204;19.774;2023-08-06T04:04:07;99009.81;;;19.19;100.00
72961;BME280;61141;46.204;19.774;2023-08-06T04:07:09;98989.47;;;19.13;100.00
72961;BME280;61141;46.204;19.774;2023-08-06T04:10:12;98993.78;;;19.23;100.00
72961;BME280;61141;46.204;19.774;2023-08-06T04:13:15;98991.31;;;19.25;100.00
72961;BME280;61141;46.204;19.774;2023-08-06T04:16:18;98984.06;;;19.28;100.00
72961;BME280;61141;46.204;19.774;2023-08-06T04:19:22;98986.09;;;19.27;100.00
72961;BME280;61141;46.204;19.774;2023-08-06T04:22:25;98993.81;;;19.32;100.00
72961;BME280;61141;46.204;19.774;2023-08-06T04:25:28;99001.97;;;19.36;100.00
72961;BME280;61141;46.204;19.774;2023-08-06T04:28:31;99001.97;;;19.36;100.00
72961;BME280;61141;46.204;19.774;2023-08-06T04:31:33;98994.91;;;19.35;100.00
72961;BME280;61141;46.204;19.774;2023-08-06T04:34:37;98994.13;;;19.34;100.00
72961;BME280;61141;46.204;19.774;2023-08-06T04:37:40;99003.53;;;19.37;100.00
72961;BME280;61141;46.204;19.774;2023-08-06T04:40:43;98997.81;;;19.31;100.00
72961;BME280;61141;46.204;19.774;2023-08-06T04:43:46;98991.66;;;19.36;100.00
72961;BME280;61141;46.204;19.774;2023-08-06T04:46:49;98999.56;;;19.38;100.00
72961;BME280;61141;46.204;19.774;2023-08-06T04:49:53;98992.00;;;19.39;100.00
72961;BME280;61141;46.204;19.774;2023-08-06T04:52:56;99008.66;;;19.48;100.00
72961;BME280;61141;46.204;19.774;2023-08-06T04:55:59;99006.50;;;19.52;100.00
72961;BME280;61141;46.204;19.774;2023-08-06T04:59:02;98991.69;;;19.55;100.00
72961;BME280;61141;46.204;19.774;2023-08-06T05:02:04;98990.78;;;19.58;100.00
72961;BME280;61141;46.204;19.774;2023-08-06T05:05:08;98983.66;;;19.57;100.00
72961;BME280;61141;46.204;19.774;2023-08-06T05:08:14;98977.19;;;19.60;100.00
72961;BME280;61141;46.204;19.774;2023-08-06T05:11:18;98980.91;;;19.66;100.00
72961;BME280;61141;46.204;19.774;2023-08-06T05:14:21;98985.53;;;19.69;100.00
72961;BME280;61141;46.204;19.774;2023-08-06T05:17:24;98988.59;;;19.71;100.00
72961;BME280;61141;46.204;19.774;2023-08-06T05:20:27;98993.09;;;19.68;100.00
72961;BME280;61141;46.204;19.774;2023-08-06T05:23:30;99001.87;;;19.67;100.00
72961;BME280;61141;46.204;19.774;2023-08-06T05:26:32;99003.44;;;19.68;100.00
72961;BME280;61141;46.204;19.774;2023-08-06T05:29:35;99004.81;;;19.63;100.00
72961;BME280;61141;46.204;19.774;2023-08-06T05:32:38;99006.81;;;19.63;100.00
72961;BME280;61141;46.204;19.774;2023-08-06T05:35:41;99010.22;;;19.58;100.00
72961;BME280;61141;46.204;19.774;2023-08-06T05:38:44;99019.94;;;19.62;100.00
72961;BME280;61141;46.204;19.774;2023-08-06T05:41:47;99019.78;;;19.57;100.00
72961;BME280;61141;46.204;19.774;2023-08-06T05:44:50;99015.47;;;19.47;100.00
72961;BME280;61141;46.204;19.774;2023-08-06T05:47:53;99008.19;;;19.40;100.00
72961;BME280;61141;46.204;19.774;2023-08-06T05:50:57;99001.97;;;19.36;100.00
72961;BME280;61141;46.204;19.774;2023-08-06T05:54:01;99003.44;;;19.50;100.00
72961;BME280;61141;46.204;19.774;2023-08-06T05:57:04;99004.81;;;19.63;100.00
72961;BME280;61141;46.204;19.774;2023-08-06T06:00:08;99001.56;;;19.83;100.00
72961;BME280;61141;46.204;19.774;2023-08-06T06:03:13;99003.56;;;19.91;100.00
72961;BME280;61141;46.204;19.774;2023-08-06T06:06:16;99008.97;;;20.04;100.00
72961;BME280;61141;46.204;19.774;2023-08-06T06:09:20;99013.59;;;19.98;100.00
72961;BME280;61141;46.204;19.774;2023-08-06T06:12:23;99009.91;;;19.74;100.00
72961;BME280;61141;46.204;19.774;2023-08-06T06:15:28;99014.25;;;19.66;100.00
72961;BME280;61141;46.204;19.774;2023-08-06T06:18:31;99012.06;;;19.61;100.00
72961;BME280;61141;46.204;19.774;2023-08-06T06:21:34;99038.47;;;19.65;100.00
72961;BME280;61141;46.204;19.774;2023-08-06T06:24:36;99025.47;;;19.53;100.00
72961;BME280;61141;46.204;19.774;2023-08-06T06:27:39;99029.97;;;19.51;100.00
72961;BME280;61141;46.204;19.774;2023-08-06T06:30:42;99028.13;;;19.57;100.00
72961;BME280;61141;46.204;19.774;2023-08-06T06:33:45;99028.13;;;19.57;100.00
72961;BME280;61141;46.204;19.774;2023-08-06T06:36:48;99041.72;;;19.55;100.00
72961;BME280;61141;46.204;19.774;2023-08-06T06:39:50;99037.06;;;19.52;100.00
72961;BME280;61141;46.204;19.774;2023-08-06T06:42:53;99029.62;;;19.40;100.00
72961;BME280;61141;46.204;19.774;2023-08-06T06:45:56;99030.69;;;19.33;100.00
72961;BME280;61141;46.204;19.774;2023-08-06T06:49:01;99043.81;;;19.32;100.00
72961;BME280;61141;46.204;19.774;2023-08-06T06:52:04;99043.78;;;19.23;100.00
72961;BME280;61141;46.204;19.774;2023-08-06T06:55:07;99047.63;;;19.26;100.00
72961;BME280;61141;46.204;19.774;2023-08-06T06:58:10;99034.81;;;19.19;100.00
72961;BME280;61141;46.204;19.774;2023-08-06T07:01:13;99057.69;;;19.32;100.00
72961;BME280;61141;46.204;19.774;2023-08-06T07:04:16;99057.34;;;19.30;100.00
72961;BME280;61141;46.204;19.774;2023-08-06T07:07:18;99053.28;;;19.04;100.00
72961;BME280;61141;46.204;19.774;2023-08-06T07:10:21;99067.47;;;19.06;100.00
72961;BME280;61141;46.204;19.774;2023-08-06T07:13:24;99039.56;;;18.70;100.00
72961;BME280;61141;46.204;19.774;2023-08-06T07:16:27;99058.06;;;19.04;100.00
72961;BME280;61141;46.204;19.774;2023-08-06T07:19:30;99064.94;;;18.90;100.00
72961;BME280;61141;46.204;19.774;2023-08-06T07:22:33;99074.62;;;19.25;100.00
72961;BME280;61141;46.204;19.774;2023-08-06T07:25:36;99074.62;;;19.16;100.00
72961;BME280;61141;46.204;19.774;2023-08-06T07:28:38;99069.41;;;19.36;100.00
72961;BME280;61141;46.204;19.774;2023-08-06T07:31:41;99058.03;;;19.53;100.00
72961;BME280;61141;46.204;19.774;2023-08-06T07:34:44;99067.03;;;19.75;100.00
72961;BME280;61141;46.204;19.774;2023-08-06T07:37:47;99067.66;;;20.15;100.00
72961;BME280;61141;46.204;19.774;2023-08-06T07:40:50;99072.88;;;20.13;100.00
72961;BME280;61141;46.204;19.774;2023-08-06T07:43:53;99070.97;;;20.65;100.00
72961;BME280;61141;46.204;19.774;2023-08-06T07:46:55;99064.13;;;20.75;100.00
72961;BME280;61141;46.204;19.774;2023-08-06T07:49:58;99057.69;;;20.60;100.00
72961;BME280;61141;46.204;19.774;2023-08-06T07:53:02;99039.22;;;21.13;98.18
72961;BME280;61141;46.204;19.774;2023-08-06T07:56:04;99059.38;;;20.99;97.49
72961;BME280;61141;46.204;19.774;2023-08-06T07:59:07;99047.78;;;20.59;98.67
72961;BME280;61141;46.204;19.774;2023-08-06T08:02:10;99050.09;;;21.02;97.77
72961;BME280;61141;46.204;19.774;2023-08-06T08:05:13;99054.41;;;21.03;94.55
72961;BME280;61141;46.204;19.774;2023-08-06T08:08:16;99048.84;;;21.12;94.76
72961;BME280;61141;46.204;19.774;2023-08-06T08:11:20;99061.59;;;21.28;94.76
72961;BME280;61141;46.204;19.774;2023-08-06T08:14:23;99060.38;;;20.87;93.08
72961;BME280;61141;46.204;19.774;2023-08-06T08:17:26;99068.34;;;21.03;91.01
72961;BME280;61141;46.204;19.774;2023-08-06T08:20:29;99081.50;;;21.35;90.26
72961;BME280;61141;46.204;19.774;2023-08-06T08:23:34;99074.28;;;21.29;88.60
72961;BME280;61141;46.204;19.774;2023-08-06T08:26:37;99081.09;;;21.28;92.23
72961;BME280;61141;46.204;19.774;2023-08-06T08:29:40;99074.81;;;21.18;89.60
72961;BME280;61141;46.204;19.774;2023-08-06T08:32:43;99084.09;;;21.48;89.65
72961;BME280;61141;46.204;19.774;2023-08-06T08:35:46;99086.19;;;21.29;89.29
72961;BME280;61141;46.204;19.774;2023-08-06T08:38:49;99076.25;;;21.61;86.48
72961;BME280;61141;46.204;19.774;2023-08-06T08:41:56;99091.47;;;21.75;84.95
72961;BME280;61141;46.204;19.774;2023-08-06T08:44:59;99092.44;;;21.72;86.25
72961;BME280;61141;46.204;19.774;2023-08-06T08:48:02;99075.00;;;21.05;85.05
72961;BME280;61141;46.204;19.774;2023-08-06T08:51:06;99089.44;;;21.28;82.44
72961;BME280;61141;46.204;19.774;2023-08-06T08:54:11;99101.13;;;21.17;83.31
72961;BME280;61141;46.204;19.774;2023-08-06T08:57:15;99096.94;;;21.45;82.62
72961;BME280;61141;46.204;19.774;2023-08-06T09:00:18;99083.75;;;21.46;83.20
72961;BME280;61141;46.204;19.774;2023-08-06T09:03:22;99099.41;;;21.20;81.39
72961;BME280;61141;46.204;19.774;2023-08-06T09:06:26;99109.09;;;21.81;83.17
72961;BME280;61141;46.204;19.774;2023-08-06T09:09:34;99113.84;;;21.65;82.02
72961;BME280;61141;46.204;19.774;2023-08-06T09:12:41;99105.75;;;22.15;81.52
72961;BME280;61141;46.204;19.774;2023-08-06T09:15:44;99107.25;;;22.01;79.19
72961;BME280;61141;46.204;19.774;2023-08-06T09:18:47;99114.50;;;21.60;81.79
72961;BME280;61141;46.204;19.774;2023-08-06T09:21:51;99109.94;;;21.48;81.04
72961;BME280;61141;46.204;19.774;2023-08-06T09:24:55;99111.47;;;21.49;79.75
72961;BME280;61141;46.204;19.774;2023-08-06T09:27:59;99116.72;;;21.56;78.37
72961;BME280;61141;46.204;19.774;2023-08-06T09:31:02;99108.03;;;21.78;78.06
72961;BME280;61141;46.204;19.774;2023-08-06T09:34:10;99118.78;;;21.94;77.77
72961;BME280;61141;46.204;19.774;2023-08-06T09:37:14;99124.37;;;21.94;76.72
72961;BME280;61141;46.204;19.774;2023-08-06T09:40:28;99127.62;;;21.93;75.92
72961;BME280;61141;46.204;19.774;2023-08-06T09:43:42;99121.03;;;21.81;75.26
72961;BME280;61141;46.204;19.774;2023-08-06T09:46:53;99126.00;;;22.54;72.93
72961;BME280;61141;46.204;19.774;2023-08-06T09:49:56;99105.62;;;22.62;71.73
72961;BME280;61141;46.204;19.774;2023-08-06T09:53:03;99119.50;;;22.71;71.05
72961;BME280;61141;46.204;19.774;2023-08-06T09:56:07;99123.34;;;22.45;72.29
72961;BME280;61141;46.204;19.774;2023-08-06T09:59:10;99129.72;;;22.21;72.03
72961;BME280;61141;46.204;19.774;2023-08-06T10:02:16;99135.34;;;21.98;74.07
72961;BME280;61141;46.204;19.774;2023-08-06T10:05:22;99135.03;;;21.96;72.76
72961;BME280;61141;46.204;19.774;2023-08-06T10:08:26;99128.72;;;22.10;73.67
72961;BME280;61141;46.204;19.774;2023-08-06T10:11:30;99147.31;;;22.13;73.37
72961;BME280;61141;46.204;19.774;2023-08-06T10:14:35;99140.94;;;22.36;72.86
72961;BME280;61141;46.204;19.774;2023-08-06T10:17:40;99135.97;;;22.84;71.81
72961;BME280;61141;46.204;19.774;2023-08-06T10:20:53;99145.31;;;22.66;72.47
72961;BME280;61141;46.204;19.774;2023-08-06T10:23:56;99140.66;;;22.49;70.07
72961;BME280;61141;46.204;19.774;2023-08-06T10:26:59;99122.47;;;23.12;72.55
72961;BME280;61141;46.204;19.774;2023-08-06T10:30:21;99131.72;;;22.45;72.27
72961;BME280;61141;46.204;19.774;2023-08-06T10:33:43;99140.81;;;22.45;71.34
72961;BME280;61141;46.204;19.774;2023-08-06T10:36:47;99120.53;;;22.59;73.80
72961;BME280;61141;46.204;19.774;2023-08-06T10:39:52;99134.88;;;22.52;72.85
72961;BME280;61141;46.204;19.774;2023-08-06T10:42:56;99138.38;;;22.23;72.45
72961;BME280;61141;46.204;19.774;2023-08-06T10:46:02;99151.69;;;21.57;78.53
72961;BME280;61141;46.204;19.774;2023-08-06T10:49:05;99156.91;;;20.72;77.87
72961;BME280;61141;46.204;19.774;2023-08-06T10:52:09;99157.47;;;21.03;78.51
72961;BME280;61141;46.204;19.774;2023-08-06T10:55:14;99156.06;;;21.17;77.53
72961;BME280;61141;46.204;19.774;2023-08-06T10:58:17;99141.72;;;20.91;75.55
72961;BME280;61141;46.204;19.774;2023-08-06T11:01:22;99166.25;;;21.20;75.14
72961;BME280;61141;46.204;19.774;2023-08-06T11:04:30;99159.38;;;20.79;76.36
72961;BME280;61141;46.204;19.774;2023-08-06T11:07:37;99164.66;;;21.37;74.28
72961;BME280;61141;46.204;19.774;2023-08-06T11:10:39;99174.62;;;21.52;73.18
72961;BME280;61141;46.204;19.774;2023-08-06T11:13:59;99165.28;;;21.64;71.55
72961;BME280;61141;46.204;19.774;2023-08-06T11:17:02;99163.59;;;22.29;71.24
72961;BME280;61141;46.204;19.774;2023-08-06T11:20:06;99166.75;;;22.60;68.48
72961;BME280;61141;46.204;19.774;2023-08-06T11:23:10;99163.53;;;23.06;70.24
72961;BME280;61141;46.204;19.774;2023-08-06T11:26:18;99159.88;;;22.85;67.56
72961;BME280;61141;46.204;19.774;2023-08-06T11:29:21;99181.81;;;22.01;70.44
72961;BME280;61141;46.204;19.774;2023-08-06T11:32:26;99180.00;;;21.65;70.43
72961;BME280;61141;46.204;19.774;2023-08-06T11:35:30;99192.03;;;21.71;71.65
72961;BME280;61141;46.204;19.774;2023-08-06T11:38:36;99204.34;;;21.55;71.99
72961;BME280;61141;46.204;19.774;2023-08-06T11:41:39;99192.72;;;21.06;71.70
72961;BME280;61141;46.204;19.774;2023-08-06T11:44:43;99190.25;;;20.99;73.00
72961;BME280;61141;46.204;19.774;2023-08-06T11:47:50;99193.31;;;21.28;74.03
72961;BME280;61141;46.204;19.774;2023-08-06T11:50:54;99183.78;;;21.11;73.28
72961;BME280;61141;46.204;19.774;2023-08-06T11:53:58;99181.88;;;21.26;73.88
72961;BME280;61141;46.204;19.774;2023-08-06T11:57:01;99158.56;;;21.47;72.33
72961;BME280;61141;46.204;19.774;2023-08-06T12:00:10;99162.13;;;21.72;71.30
72961;BME280;61141;46.204;19.774;2023-08-06T12:03:13;99180.81;;;21.80;71.75
72961;BME280;61141;46.204;19.774;2023-08-06T12:06:19;99171.09;;;21.76;69.80
72961;BME280;61141;46.204;19.774;2023-08-06T12:09:22;99194.16;;;22.09;70.31
72961;BME280;61141;46.204;19.774;2023-08-06T12:12:25;99187.47;;;21.83;70.41
72961;BME280;61141;46.204;19.774;2023-08-06T12:15:28;99179.88;;;21.92;70.01
72961;BME280;61141;46.204;19.774;2023-08-06T12:18:35;99174.03;;;21.48;71.11
72961;BME280;61141;46.204;19.774;2023-08-06T12:21:37;99188.97;;;22.16;69.49
72961;BME280;61141;46.204;19.774;2023-08-06T12:24:42;99183.16;;;22.67;67.52
72961;BME280;61141;46.204;19.774;2023-08-06T12:27:45;99173.69;;;22.12;67.84
72961;BME280;61141;46.204;19.774;2023-08-06T12:30:48;99145.59;;;22.15;66.46
72961;BME280;61141;46.204;19.774;2023-08-06T12:33:52;99171.69;;;22.27;68.06
72961;BME280;61141;46.204;19.774;2023-08-06T12:36:55;99184.53;;;22.48;66.98
72961;BME280;61141;46.204;19.774;2023-08-06T12:39:57;99170.56;;;22.72;66.60
72961;BME280;61141;46.204;19.774;2023-08-06T12:43:00;99180.13;;;22.42;64.86
72961;BME280;61141;46.204;19.774;2023-08-06T12:46:03;99187.19;;;22.28;66.77
72961;BME280;61141;46.204;19.774;2023-08-06T12:49:07;99192.56;;;22.55;66.25
72961;BME280;61141;46.204;19.774;2023-08-06T12:52:09;99194.34;;;22.44;67.25
72961;BME280;61141;46.204;19.774;2023-08-06T12:55:15;99191.00;;;22.16;65.32
72961;BME280;61141;46.204;19.774;2023-08-06T12:58:17;99186.53;;;22.71;65.79
72961;BME280;61141;46.204;19.774;2023-08-06T13:01:20;99182.50;;;23.02;64.79
72961;BME280;61141;46.204;19.774;2023-08-06T13:04:23;99167.28;;;23.03;63.02
72961;BME280;61141;46.204;19.774;2023-08-06T13:07:26;99169.75;;;23.30;61.57
72961;BME280;61141;46.204;19.774;2023-08-06T13:10:29;99171.34;;;23.66;62.14
72961;BME280;61141;46.204;19.774;2023-08-06T13:13:34;99172.84;;;23.32;62.38
72961;BME280;61141;46.204;19.774;2023-08-06T13:16:38;99176.63;;;23.00;63.10
72961;BME280;61141;46.204;19.774;2023-08-06T13:19:41;99191.25;;;22.80;63.04
72961;BME280;61141;46.204;19.774;2023-08-06T13:22:43;99209.63;;;22.10;65.05
72961;BME280;61141;46.204;19.774;2023-08-06T13:25:49;99194.75;;;21.89;67.92
72961;BME280;61141;46.204;19.774;2023-08-06T13:28:51;99210.78;;;21.71;66.62
72961;BME280;61141;46.204;19.774;2023-08-06T13:31:54;99214.50;;;21.67;67.48
72961;BME280;61141;46.204;19.774;2023-08-06T13:34:57;99227.16;;;21.87;68.93
72961;BME280;61141;46.204;19.774;2023-08-06T13:38:00;99222.84;;;21.35;68.54
72961;BME280;61141;46.204;19.774;2023-08-06T13:41:05;99230.06;;;21.83;68.86
72961;BME280;61141;46.204;19.774;2023-08-06T13:44:08;99240.31;;;21.77;68.08
72961;BME280;61141;46.204;19.774;2023-08-06T13:47:11;99238.66;;;21.71;66.87
72961;BME280;61141;46.204;19.774;2023-08-06T13:50:15;99242.72;;;21.60;65.39
72961;BME280;61141;46.204;19.774;2023-08-06T13:53:17;99239.94;;;21.60;66.36
72961;BME280;61141;46.204;19.774;2023-08-06T13:56:20;99257.97;;;21.32;66.56
72961;BME280;61141;46.204;19.774;2023-08-06T13:59:23;99254.31;;;21.26;67.09
72961;BME280;61141;46.204;19.774;2023-08-06T14:02:27;99254.09;;;21.48;66.58
72961;BME280;61141;46.204;19.774;2023-08-06T14:05:30;99258.81;;;21.65;67.54
72961;BME280;61141;46.204;19.774;2023-08-06T14:08:33;99256.81;;;20.79;69.26
72961;BME280;61141;46.204;19.774;2023-08-06T14:11:36;99232.88;;;21.41;67.85
72961;BME280;61141;46.204;19.774;2023-08-06T14:14:39;99265.03;;;21.51;66.76
72961;BME280;61141;46.204;19.774;2023-08-06T14:17:42;99265.62;;;21.64;66.61
72961;BME280;61141;46.204;19.774;2023-08-06T14:20:45;99260.47;;;21.72;65.92
72961;BME280;61141;46.204;19.774;2023-08-06T14:23:48;99263.22;;;21.48;65.34
72961;BME280;61141;46.204;19.774;2023-08-06T14:26:50;99266.97;;;21.78;65.25
72961;BME280;61141;46.204;19.774;2023-08-06T14:29:55;99280.97;;;22.02;64.22
72961;BME280;61141;46.204;19.774;2023-08-06T14:32:57;99282.66;;;22.32;63.93
72961;BME280;61141;46.204;19.774;2023-08-06T14:36:14;99273.16;;;22.15;64.52
72961;BME280;61141;46.204;19.774;2023-08-06T14:39:17;99272.19;;;21.85;66.88
72961;BME280;61141;46.204;19.774;2023-08-06T14:42:20;99271.03;;;21.26;70.57
72961;BME280;61141;46.204;19.774;2023-08-06T14:45:22;99274.97;;;21.43;71.32
72961;BME280;61141;46.204;19.774;2023-08-06T14:48:25;99293.63;;;21.10;73.87
72961;BME280;61141;46.204;19.774;2023-08-06T14:51:28;99291.75;;;20.98;73.88
72961;BME280;61141;46.204;19.774;2023-08-06T14:54:31;99309.69;;;20.88;74.49
72961;BME280;61141;46.204;19.774;2023-08-06T14:57:34;99311.72;;;20.87;74.85
72961;BME280;61141;46.204;19.774;2023-08-06T15:00:37;99311.56;;;21.00;74.22
72961;BME280;61141;46.204;19.774;2023-08-06T15:03:40;99319.47;;;20.92;74.42
72961;BME280;61141;46.204;19.774;2023-08-06T15:06:43;99324.69;;;20.63;75.01
72961;BME280;61141;46.204;19.774;2023-08-06T15:09:45;99318.06;;;21.06;74.58
72961;BME280;61141;46.204;19.774;2023-08-06T15:13:08;99328.41;;;20.96;75.22
72961;BME280;61141;46.204;19.774;2023-08-06T15:16:11;99319.41;;;20.38;75.75
72961;BME280;61141;46.204;19.774;2023-08-06T15:19:14;99309.84;;;20.93;75.42
72961;BME280;61141;46.204;19.774;2023-08-06T15:22:17;99322.25;;;20.92;74.89
72961;BME280;61141;46.204;19.774;2023-08-06T15:25:20;99315.47;;;21.12;74.89
72961;BME280;61141;46.204;19.774;2023-08-06T15:28:22;99310.94;;;21.05;75.16
72961;BME280;61141;46.204;19.774;2023-08-06T15:31:35;99313.72;;;21.32;74.23
72961;BME280;61141;46.204;19.774;2023-08-06T15:34:38;99312.03;;;21.07;74.69
72961;BME280;61141;46.204;19.774;2023-08-06T15:37:42;99314.06;;;21.07;75.03
72961;BME280;61141;46.204;19.774;2023-08-06T15:40:45;99308.16;;;21.23;74.68
72961;BME280;61141;46.204;19.774;2023-08-06T15:43:49;99309.56;;;21.00;76.81
72961;BME280;61141;46.204;19.774;2023-08-06T15:46:52;99302.44;;;20.81;77.34
72961;BME280;61141;46.204;19.774;2023-08-06T15:49:55;99312.34;;;20.73;77.54
72961;BME280;61141;46.204;19.774;2023-08-06T15:52:58;99294.81;;;20.36;78.35
72961;BME280;61141;46.204;19.774;2023-08-06T15:56:01;99312.69;;;20.17;79.44
72961;BME280;61141;46.204;19.774;2023-08-06T15:59:24;99325.63;;;20.11;77.70